Flight Track Log - Related Links

Times and Time Zones

All times are in EDT time to prevent confusion due to time zone crossing. See the QLK371 flight status page for this flight to view local times or setup timezone preferences in your user account.

Time Position Orientation Groundspeed Altitude Reporting Facility
EDT Latitude Longitude Course Direction KTS MPH feet Rate Location/Type
Mon 04:51:44 PM -25.4307 152.7885 218° Southwest 146 168 6,800  Level Aus ATC (RADAR)
Mon 04:52:49 PM -25.4727 152.7516 218° Southwest 172 198 8,400 1,560 Climbing Aus ATC (RADAR)
Mon 04:54:14 PM -25.5328 152.7070 214° Southwest 189 217 10,700 1,375 Climbing Aus ATC (RADAR)
Mon 04:55:13 PM -25.5910 152.7125 175° South 210 242 11,700 1,016 Climbing Aus ATC (RADAR)
Mon 04:56:18 PM -25.6555 152.7159 177° South 220 253 12,800 600 Climbing Aus ATC (RADAR)
Mon 04:57:23 PM -25.7233 152.7172 179° South 225 259 13,000 92 Climbing Aus ATC (RADAR)
Mon 04:58:28 PM -25.7877 152.7204 177° South 211 243 13,000  Level Aus ATC (RADAR)
Mon 04:59:33 PM -25.8486 152.7231 178° South 203 234 13,000  Level Aus ATC (RADAR)
Mon 05:01:48 PM -25.9770 152.7291 178° South 207 238 13,000  Level Aus ATC (RADAR)
Mon 05:03:03 PM -26.0487 152.7317 178° South 206 237 13,000  Level Aus ATC (RADAR)
Mon 05:03:18 PM -26.0631 152.7328 176° South 207 238 13,000  Level Aus ATC (RADAR)
Mon 05:04:18 PM -26.1201 152.7347 178° South 203 234 13,000  Level Aus ATC (RADAR)
Mon 05:04:53 PM -26.1528 152.7356 178° South 202 232 13,000  Level Aus ATC (RADAR)
Mon 05:05:38 PM -26.1943 152.7378 177° South 198 228 13,000  Level Aus ATC (RADAR)
Mon 05:06:57 PM -26.2687 152.7413 178° South 201 231 13,000  Level Aus ATC (RADAR)
Mon 05:07:12 PM -26.2828 152.7424 176° South 201 231 13,000  Level Aus ATC (RADAR)
Mon 05:07:47 PM -26.3153 152.7438 178° South 200 230 13,000  Level Aus ATC (RADAR)
Mon 05:08:47 PM -26.3713 152.7460 178° South 201 231 13,000  Level Aus ATC (RADAR)
Mon 05:09:02 PM -26.3852 152.7465 178° South 200 230 13,000  Level Aus ATC (RADAR)
Mon 05:09:32 PM -26.4131 152.7475 178° South 201 231 13,000  Level Aus ATC (RADAR)
Mon 05:10:27 PM -26.4648 152.7498 178° South 204 235 13,000  Level Aus ATC (RADAR)
Mon 05:11:57 PM -26.5510 152.7546 177° South 206 237 13,000  Level Aus ATC (RADAR)
Mon 05:12:32 PM -26.5842 152.7554 179° South 204 235 13,000  Level Aus ATC (RADAR)
Mon 05:13:17 PM -26.6261 152.7568 178° South 201 231 13,000  Level Aus ATC (RADAR)
Mon 05:14:12 PM -26.6782 152.7591 178° South 204 235 13,000  Level Aus ATC (RADAR)
Mon 05:14:47 PM -26.7116 152.7602 178° South 204 235 13,000  Level Aus ATC (RADAR)
Mon 05:15:37 PM -26.7586 152.7625 177° South 202 232 13,000  Level Aus ATC (RADAR)
Mon 05:15:52 PM -26.7720 152.7694 155° Southeast 207 238 13,000  Level Aus ATC (RADAR)
Mon 05:17:21 PM -26.7140 152.8089 31° Northeast 203 234 13,000  Level Aus ATC (RADAR)
Mon 05:17:36 PM -26.7024 152.8012 329° Northwest 196 226 13,000  Level Aus ATC (RADAR)
Mon 05:18:11 PM -26.6754 152.7826 328° Northwest 195 224 13,000  Level Aus ATC (RADAR)
Mon 05:19:07 PM -26.6328 152.7522 327° Northwest 197 227 13,000  Level Aus ATC (RADAR)
Mon 05:19:56 PM -26.6292 152.7131 276° West 183 211 13,000  Level Aus ATC (RADAR)
Mon 05:20:56 PM -26.6849 152.7273 167° South 212 244 13,000 -41 Level Aus ATC (RADAR)
Mon 05:22:21 PM -26.7614 152.7706 153° Southeast 222 255 12,900 -360 Descending Aus ATC (RADAR)
Mon 05:22:36 PM -26.7769 152.7798 152° Southeast 236 272 12,400 -1,600 Descending Aus ATC (RADAR)
Mon 05:23:06 PM -26.8105 152.7990 153° Southeast 263 303 11,700 -1,467 Descending Aus ATC (RADAR)
Mon 05:24:06 PM -26.8790 152.8427 150° Southeast 276 318 10,200 -1,440 Descending Aus ATC (RADAR)
Mon 05:24:21 PM -26.8956 152.8527 152° Southeast 272 313 9,900 -1,440 Descending Aus ATC (RADAR)
Mon 05:24:56 PM -26.9345 152.8760 152° Southeast 267 307 9,000 -1,467 Descending Aus ATC (RADAR)
Mon 05:25:51 PM -26.9944 152.9114 152° Southeast 259 298 7,700 -1,358 Descending Aus ATC (RADAR)
Mon 05:27:35 PM -27.0998 152.9872 147° Southeast 247 284 5,400 -1,311 Descending Aus ATC (RADAR)
Mon 05:27:50 PM -27.1108 153.0025 129° Southeast 246 283 5,100 -1,067 Descending Aus ATC (RADAR)
Mon 05:28:20 PM -27.1344 153.0292 135° Southeast 237 273 4,600 -1,000 Descending Aus ATC (RADAR)
Mon 05:29:20 PM -27.1821 153.0817 136° Southeast 237 273 3,600 -1,040 Descending Aus ATC (RADAR)
Mon 05:29:35 PM -27.1946 153.0944 138° Southeast 236 272 3,300 -840 Descending Aus ATC (RADAR)
Mon 05:30:10 PM -27.2170 153.1252 129° Southeast 213 245 2,900 -667 Descending Aus ATC (RADAR)
Mon 05:31:05 PM -27.2467 153.1669 129° Southeast 180 207 2,300 -600 Descending Aus ATC (RADAR)
Mon 05:32:30 PM -27.3047 153.1744 173° South 138 159 1,500 -540 Descending Aus ATC (RADAR)
Mon 05:32:45 PM -27.3127 153.1691 211° Southwest 136 157 1,400 -600 Descending Aus ATC (RADAR)
Mon 05:33:20 PM -27.3296 153.1603 205° Southwest 116 133 1,000 -600 Descending Aus ATC (RADAR)
Mon 05:34:15 PM -27.3531 153.1474 206° Southwest 98 113 500 -514 Descending Aus ATC (RADAR)
Mon 05:34:30 PM -27.3592 153.1436 210° Southwest 98 113 400 -490 Descending Aus ATC (RADAR)
Mon 05:35:04 PM -27.3726 153.1359 207° Southwest 97 112 100 -529 Descending Aus ATC (RADAR)

Login

Don't have an account? Register now (free) for customized features, flight alerts, and more!